Flight Track Log - Related Links

Times and Time Zones

All times are in EDT time to prevent confusion due to time zone crossing. See the EJA618 flight status page for this flight to view local times or setup timezone preferences in your user account.

Time Position Orientation Groundspeed Altitude Reporting Facility
EDT Latitude Longitude Course Direction KTS MPH feet Rate Location/Type
Mon 08:11:25 PM 36.6667 -121.9000 345° North 262 302 4,500  Level Northern Cal TRACON
Mon 08:12:31 PM 36.7000 -122.0000 293° West 273 314 8,200 2,857 Climbing Northern Cal TRACON
Mon 08:13:31 PM 36.7500 -122.0833 307° West 302 348 10,500 1,950 Climbing Northern Cal TRACON
Mon 08:14:31 PM 36.8167 -122.1500 321° Northwest 321 369 12,100 832 Climbing Northern Cal TRACON
Mon 08:15:12 PM 36.8553 -122.1897 321° Northwest 328 377 11,900 -117 Descending Oakland Center
Mon 08:16:14 PM 36.9317 -122.2714 319° Northwest 356 410 11,900  Level Oakland Center
Mon 08:17:15 PM 37.0050 -122.3497 320° Northwest 350 403 11,900 49 Level Oakland Center
Mon 08:18:16 PM 37.0817 -122.4306 320° Northwest 358 412 12,000 49 Climbing Oakland Center
Mon 08:19:18 PM 37.1750 -122.4797 337° Northwest 366 421 12,000 -390 Level Oakland Center
Mon 08:20:19 PM 37.2897 -122.5286 341° North 365 420 11,200 -1,033 Descending Oakland Center
Mon 08:21:20 PM 37.3839 -122.5686 341° North 360 414 9,900 -1,024 Descending Oakland Center
Mon 08:22:22 PM 37.4653 -122.5919 347° North 309 356 9,100 -878 Descending Oakland Center
Mon 08:23:23 PM 37.5381 -122.5467 26° Northeast 294 338 8,100 -541 Descending Oakland Center
Mon 08:24:24 PM 37.6094 -122.4989 28° Northeast 292 336 8,000 -488 Descending Oakland Center
Mon 08:25:26 PM 37.6878 -122.5036 357° North 293 337 7,100 -927 Descending Oakland Center
Mon 08:26:27 PM 37.7636 -122.5317 344° North 288 331 6,100 -537 Descending Oakland Center
Mon 08:27:29 PM 37.8356 -122.5586 344° North 277 319 6,000 -49 Descending Oakland Center
Mon 08:28:30 PM 37.9086 -122.5850 344° North 275 316 6,000  Level Oakland Center
Mon 08:29:31 PM 37.9911 -122.6167 343° North 278 320 6,000  Level Oakland Center
Mon 08:30:33 PM 38.0644 -122.6442 344° North 276 318 6,000  Level Oakland Center
Mon 08:31:34 PM 38.1386 -122.6722 343° North 277 319 6,000  Level Oakland Center
Mon 08:32:35 PM 38.2117 -122.6997 344° North 276 318 6,000 -683 Level Oakland Center
Mon 08:33:37 PM 38.2972 -122.7328 343° North 272 313 4,600 -1,659 Descending Oakland Center
Mon 08:34:38 PM 38.3661 -122.7594 343° North 265 305 2,600 -1,426 Descending Oakland Center
Mon 08:35:39 PM 38.4319 -122.7856 343° North 257 296 1,700 -390 Descending Oakland Center
Mon 08:36:41 PM 38.4806 -122.8136 336° Northwest 215 247 1,800 -195 Climbing Oakland Center
Mon 08:37:42 PM 38.5250 -122.8478 329° Northwest 197 227 1,300 -541 Descending Oakland Center
Mon 08:38:43 PM 38.5406 -122.8264 47° Northeast 170 196 700 -590 Descending Oakland Center

Login

Don't have an account? Register now (free) for customized features, flight alerts, and more!